Terminal Aerodrome Forecast
Issued by NWS

Home | Current Version | Previous Version | Graphics & Text | Print | Product List | Glossary On
Versions: 1 2 3 4 5 6 7 8 9 10 11 12 13 14 15 16 17 18 19 20 21
865
FTUS43 KICT 191132
TAFSLN
TAF
KSLN 191132Z 1912/2012 17009KT 4SM BR OVC007
     FM191400 16009KT 3SM BR OVC005
     FM192100 14007KT 5SM BR OVC007
     FM200300 VRB03KT P6SM -DZ OVC003
      AMD NOT SKED=

USA.gov is the U.S. government's official web portal to all federal, state and local government web resources and services.